sensor_id;sensor_type;location;lat;lon;timestamp;P1;durP1;ratioP1;P2;durP2;ratioP2
76848;SDS011;65814;51.134;16.980;2024-03-07T00:01:14;29.70;;;16.30;;
76848;SDS011;65814;51.134;16.980;2024-03-07T00:03:42;29.80;;;16.90;;
76848;SDS011;65814;51.134;16.980;2024-03-07T00:06:10;29.30;;;18.20;;
76848;SDS011;65814;51.134;16.980;2024-03-07T00:08:38;29.00;;;17.20;;
76848;SDS011;65814;51.134;16.980;2024-03-07T00:11:05;28.60;;;16.50;;
76848;SDS011;65814;51.134;16.980;2024-03-07T00:13:35;29.60;;;17.80;;
76848;SDS011;65814;51.134;16.980;2024-03-07T00:16:03;28.20;;;16.70;;
76848;SDS011;65814;51.134;16.980;2024-03-07T00:18:31;29.70;;;17.20;;
76848;SDS011;65814;51.134;16.980;2024-03-07T00:20:59;32.30;;;18.10;;
76848;SDS011;65814;51.134;16.980;2024-03-07T00:23:27;29.80;;;16.80;;
76848;SDS011;65814;51.134;16.980;2024-03-07T00:25:55;28.20;;;17.00;;
76848;SDS011;65814;51.134;16.980;2024-03-07T00:28:23;29.90;;;16.80;;
76848;SDS011;65814;51.134;16.980;2024-03-07T00:30:54;28.50;;;16.90;;
76848;SDS011;65814;51.134;16.980;2024-03-07T00:33:22;26.60;;;15.90;;
76848;SDS011;65814;51.134;16.980;2024-03-07T00:35:50;29.10;;;16.90;;
76848;SDS011;65814;51.134;16.980;2024-03-07T00:38:18;30.40;;;16.10;;
76848;SDS011;65814;51.134;16.980;2024-03-07T00:40:46;29.30;;;16.50;;
76848;SDS011;65814;51.134;16.980;2024-03-07T00:43:14;29.60;;;16.40;;
76848;SDS011;65814;51.134;16.980;2024-03-07T00:45:42;25.70;;;16.40;;
76848;SDS011;65814;51.134;16.980;2024-03-07T00:48:10;31.00;;;16.10;;
76848;SDS011;65814;51.134;16.980;2024-03-07T00:50:39;28.40;;;16.60;;
76848;SDS011;65814;51.134;16.980;2024-03-07T00:53:07;29.00;;;15.30;;
76848;SDS011;65814;51.134;16.980;2024-03-07T00:55:36;27.00;;;16.10;;
76848;SDS011;65814;51.134;16.980;2024-03-07T00:58:05;28.60;;;15.50;;
76848;SDS011;65814;51.134;16.980;2024-03-07T01:00:32;25.70;;;15.70;;
76848;SDS011;65814;51.134;16.980;2024-03-07T01:03:00;27.30;;;14.50;;
76848;SDS011;65814;51.134;16.980;2024-03-07T01:05:28;27.90;;;15.00;;
76848;SDS011;65814;51.134;16.980;2024-03-07T01:07:56;26.50;;;14.80;;
76848;SDS011;65814;51.134;16.980;2024-03-07T01:10:24;25.30;;;15.00;;
76848;SDS011;65814;51.134;16.980;2024-03-07T01:12:52;23.00;;;15.20;;
76848;SDS011;65814;51.134;16.980;2024-03-07T01:15:21;23.90;;;15.20;;
76848;SDS011;65814;51.134;16.980;2024-03-07T01:17:49;26.20;;;14.50;;
76848;SDS011;65814;51.134;16.980;2024-03-07T01:20:17;25.90;;;14.80;;
76848;SDS011;65814;51.134;16.980;2024-03-07T01:22:46;27.00;;;14.40;;
76848;SDS011;65814;51.134;16.980;2024-03-07T01:25:13;24.00;;;15.00;;
76848;SDS011;65814;51.134;16.980;2024-03-07T01:27:41;23.00;;;13.20;;
76848;SDS011;65814;51.134;16.980;2024-03-07T01:30:09;23.70;;;14.00;;
76848;SDS011;65814;51.134;16.980;2024-03-07T01:32:38;26.40;;;13.80;;
76848;SDS011;65814;51.134;16.980;2024-03-07T01:35:06;25.20;;;14.40;;
76848;SDS011;65814;51.134;16.980;2024-03-07T01:37:36;25.10;;;12.50;;
76848;SDS011;65814;51.134;16.980;2024-03-07T01:40:04;22.00;;;12.50;;
76848;SDS011;65814;51.134;16.980;2024-03-07T01:42:33;23.20;;;13.10;;
76848;SDS011;65814;51.134;16.980;2024-03-07T01:45:01;26.20;;;13.80;;
76848;SDS011;65814;51.134;16.980;2024-03-07T01:47:29;22.30;;;14.00;;
76848;SDS011;65814;51.134;16.980;2024-03-07T01:49:57;23.80;;;14.40;;
76848;SDS011;65814;51.134;16.980;2024-03-07T01:52:26;27.60;;;15.00;;
76848;SDS011;65814;51.134;16.980;2024-03-07T01:54:54;23.70;;;12.70;;
76848;SDS011;65814;51.134;16.980;2024-03-07T01:57:22;21.90;;;14.10;;
76848;SDS011;65814;51.134;16.980;2024-03-07T01:59:50;22.50;;;13.70;;
76848;SDS011;65814;51.134;16.980;2024-03-07T02:02:18;25.60;;;14.00;;
76848;SDS011;65814;51.134;16.980;2024-03-07T02:04:46;22.10;;;13.30;;
76848;SDS011;65814;51.134;16.980;2024-03-07T02:07:14;22.60;;;12.50;;
76848;SDS011;65814;51.134;16.980;2024-03-07T02:09:42;25.90;;;13.00;;
76848;SDS011;65814;51.134;16.980;2024-03-07T02:12:10;26.50;;;13.80;;
76848;SDS011;65814;51.134;16.980;2024-03-07T02:14:38;21.30;;;11.80;;
76848;SDS011;65814;51.134;16.980;2024-03-07T02:17:06;25.80;;;14.50;;
76848;SDS011;65814;51.134;16.980;2024-03-07T02:19:34;22.70;;;14.00;;
76848;SDS011;65814;51.134;16.980;2024-03-07T02:22:02;23.10;;;13.20;;
76848;SDS011;65814;51.134;16.980;2024-03-07T02:24:30;22.90;;;12.70;;
76848;SDS011;65814;51.134;16.980;2024-03-07T02:26:58;27.30;;;13.50;;
76848;SDS011;65814;51.134;16.980;2024-03-07T02:29:27;23.40;;;13.00;;
76848;SDS011;65814;51.134;16.980;2024-03-07T02:31:57;22.50;;;12.10;;
76848;SDS011;65814;51.134;16.980;2024-03-07T02:34:25;23.10;;;13.60;;
76848;SDS011;65814;51.134;16.980;2024-03-07T02:36:54;24.10;;;14.30;;
76848;SDS011;65814;51.134;16.980;2024-03-07T02:39:22;21.00;;;12.70;;
76848;SDS011;65814;51.134;16.980;2024-03-07T02:41:52;23.50;;;13.20;;
76848;SDS011;65814;51.134;16.980;2024-03-07T02:44:20;23.20;;;13.30;;
76848;SDS011;65814;51.134;16.980;2024-03-07T02:46:48;21.60;;;13.60;;
76848;SDS011;65814;51.134;16.980;2024-03-07T02:49:16;25.70;;;13.70;;
76848;SDS011;65814;51.134;16.980;2024-03-07T02:51:44;23.00;;;13.20;;
76848;SDS011;65814;51.134;16.980;2024-03-07T02:54:12;21.80;;;13.40;;
76848;SDS011;65814;51.134;16.980;2024-03-07T02:56:39;23.60;;;12.50;;
76848;SDS011;65814;51.134;16.980;2024-03-07T02:59:07;21.40;;;12.20;;
76848;SDS011;65814;51.134;16.980;2024-03-07T03:01:35;22.00;;;13.30;;
76848;SDS011;65814;51.134;16.980;2024-03-07T03:04:03;25.50;;;13.50;;
76848;SDS011;65814;51.134;16.980;2024-03-07T03:06:31;22.40;;;13.20;;
76848;SDS011;65814;51.134;16.980;2024-03-07T03:09:00;21.80;;;13.30;;
76848;SDS011;65814;51.134;16.980;2024-03-07T03:11:28;23.90;;;13.90;;
76848;SDS011;65814;51.134;16.980;2024-03-07T03:13:57;25.30;;;13.00;;
76848;SDS011;65814;51.134;16.980;2024-03-07T03:16:25;24.20;;;13.90;;
76848;SDS011;65814;51.134;16.980;2024-03-07T03:19:13;25.70;;;12.90;;
76848;SDS011;65814;51.134;16.980;2024-03-07T03:21:41;22.60;;;12.90;;
76848;SDS011;65814;51.134;16.980;2024-03-07T03:24:10;25.40;;;12.60;;
76848;SDS011;65814;51.134;16.980;2024-03-07T03:26:38;25.80;;;13.00;;
76848;SDS011;65814;51.134;16.980;2024-03-07T03:29:08;22.50;;;11.80;;
76848;SDS011;65814;51.134;16.980;2024-03-07T03:31:37;21.60;;;14.00;;
76848;SDS011;65814;51.134;16.980;2024-03-07T03:34:05;22.50;;;12.70;;
76848;SDS011;65814;51.134;16.980;2024-03-07T03:36:32;22.00;;;12.60;;
76848;SDS011;65814;51.134;16.980;2024-03-07T03:39:01;22.10;;;13.40;;
76848;SDS011;65814;51.134;16.980;2024-03-07T03:41:29;21.80;;;12.20;;
76848;SDS011;65814;51.134;16.980;2024-03-07T03:43:57;25.40;;;13.70;;
76848;SDS011;65814;51.134;16.980;2024-03-07T03:46:26;23.00;;;12.90;;
76848;SDS011;65814;51.134;16.980;2024-03-07T03:48:54;18.50;;;12.30;;
76848;SDS011;65814;51.134;16.980;2024-03-07T03:51:21;22.20;;;12.80;;
76848;SDS011;65814;51.134;16.980;2024-03-07T03:53:49;21.40;;;12.90;;
76848;SDS011;65814;51.134;16.980;2024-03-07T03:56:19;21.60;;;12.60;;
76848;SDS011;65814;51.134;16.980;2024-03-07T03:58:47;21.30;;;13.30;;
76848;SDS011;65814;51.134;16.980;2024-03-07T04:01:15;23.90;;;13.80;;
76848;SDS011;65814;51.134;16.980;2024-03-07T04:06:25;33.80;;;18.50;;
76848;SDS011;65814;51.134;16.980;2024-03-07T04:08:53;44.20;;;20.80;;
76848;SDS011;65814;51.134;16.980;2024-03-07T04:11:23;38.50;;;20.90;;
76848;SDS011;65814;51.134;16.980;2024-03-07T04:13:51;28.10;;;16.90;;
76848;SDS011;65814;51.134;16.980;2024-03-07T04:16:19;21.60;;;15.10;;
76848;SDS011;65814;51.134;16.980;2024-03-07T04:18:47;22.50;;;13.30;;
76848;SDS011;65814;51.134;16.980;2024-03-07T04:21:15;24.00;;;13.70;;
76848;SDS011;65814;51.134;16.980;2024-03-07T04:23:43;28.00;;;14.50;;
76848;SDS011;65814;51.134;16.980;2024-03-07T04:26:13;23.20;;;14.00;;
76848;SDS011;65814;51.134;16.980;2024-03-07T04:28:41;27.80;;;13.80;;
76848;SDS011;65814;51.134;16.980;2024-03-07T04:31:09;30.90;;;17.50;;
76848;SDS011;65814;51.134;16.980;2024-03-07T04:33:37;31.60;;;18.00;;
76848;SDS011;65814;51.134;16.980;2024-03-07T04:36:05;26.20;;;14.40;;
76848;SDS011;65814;51.134;16.980;2024-03-07T04:38:35;21.30;;;13.30;;
76848;SDS011;65814;51.134;16.980;2024-03-07T04:41:03;21.90;;;14.20;;
76848;SDS011;65814;51.134;16.980;2024-03-07T04:43:31;24.50;;;14.80;;
76848;SDS011;65814;51.134;16.980;2024-03-07T04:45:59;27.30;;;17.40;;
76848;SDS011;65814;51.134;16.980;2024-03-07T04:48:27;33.20;;;19.00;;
76848;SDS011;65814;51.134;16.980;2024-03-07T04:50:55;47.90;;;24.30;;
76848;SDS011;65814;51.134;16.980;2024-03-07T04:53:25;36.10;;;20.90;;
76848;SDS011;65814;51.134;16.980;2024-03-07T04:55:52;31.40;;;19.80;;
76848;SDS011;65814;51.134;16.980;2024-03-07T04:58:23;30.70;;;16.80;;
76848;SDS011;65814;51.134;16.980;2024-03-07T05:00:51;23.20;;;14.60;;
76848;SDS011;65814;51.134;16.980;2024-03-07T05:03:19;26.40;;;15.10;;
76848;SDS011;65814;51.134;16.980;2024-03-07T05:05:47;32.80;;;19.00;;
76848;SDS011;65814;51.134;16.980;2024-03-07T05:08:15;32.60;;;18.70;;
76848;SDS011;65814;51.134;16.980;2024-03-07T05:10:44;31.70;;;18.80;;
76848;SDS011;65814;51.134;16.980;2024-03-07T05:13:12;29.10;;;17.30;;
76848;SDS011;65814;51.134;16.980;2024-03-07T05:15:39;28.00;;;15.50;;
76848;SDS011;65814;51.134;16.980;2024-03-07T05:18:07;30.50;;;17.50;;
76848;SDS011;65814;51.134;16.980;2024-03-07T05:20:39;32.10;;;19.20;;
76848;SDS011;65814;51.134;16.980;2024-03-07T05:23:06;24.10;;;15.50;;
76848;SDS011;65814;51.134;16.980;2024-03-07T05:25:34;26.10;;;14.90;;
76848;SDS011;65814;51.134;16.980;2024-03-07T05:28:02;25.70;;;14.50;;
76848;SDS011;65814;51.134;16.980;2024-03-07T05:30:31;22.20;;;13.30;;
76848;SDS011;65814;51.134;16.980;2024-03-07T05:33:00;23.90;;;14.70;;
76848;SDS011;65814;51.134;16.980;2024-03-07T05:35:29;30.70;;;15.60;;
76848;SDS011;65814;51.134;16.980;2024-03-07T05:37:58;22.80;;;13.30;;
76848;SDS011;65814;51.134;16.980;2024-03-07T05:40:27;27.90;;;14.00;;
76848;SDS011;65814;51.134;16.980;2024-03-07T05:42:55;23.80;;;14.30;;
76848;SDS011;65814;51.134;16.980;2024-03-07T05:45:24;23.50;;;15.70;;
76848;SDS011;65814;51.134;16.980;2024-03-07T05:47:52;25.70;;;14.60;;
76848;SDS011;65814;51.134;16.980;2024-03-07T05:50:20;21.30;;;13.30;;
76848;SDS011;65814;51.134;16.980;2024-03-07T05:52:48;28.40;;;14.70;;
76848;SDS011;65814;51.134;16.980;2024-03-07T05:55:16;25.80;;;14.50;;
76848;SDS011;65814;51.134;16.980;2024-03-07T05:57:47;23.90;;;14.50;;
76848;SDS011;65814;51.134;16.980;2024-03-07T06:00:15;24.00;;;13.70;;
76848;SDS011;65814;51.134;16.980;2024-03-07T06:02:43;26.30;;;14.20;;
76848;SDS011;65814;51.134;16.980;2024-03-07T06:05:11;24.20;;;15.30;;
76848;SDS011;65814;51.134;16.980;2024-03-07T06:07:44;23.90;;;13.80;;
76848;SDS011;65814;51.134;16.980;2024-03-07T06:10:16;25.10;;;13.80;;
76848;SDS011;65814;51.134;16.980;2024-03-07T06:12:44;20.60;;;13.40;;
76848;SDS011;65814;51.134;16.980;2024-03-07T06:15:16;26.90;;;13.50;;
76848;SDS011;65814;51.134;16.980;2024-03-07T06:17:45;25.00;;;14.00;;
76848;SDS011;65814;51.134;16.980;2024-03-07T06:20:14;24.20;;;15.00;;
76848;SDS011;65814;51.134;16.980;2024-03-07T06:22:53;23.70;;;15.50;;
76848;SDS011;65814;51.134;16.980;2024-03-07T06:25:21;25.40;;;14.40;;
76848;SDS011;65814;51.134;16.980;2024-03-07T06:28:05;21.00;;;13.20;;
76848;SDS011;65814;51.134;16.980;2024-03-07T06:30:37;27.00;;;14.40;;
76848;SDS011;65814;51.134;16.980;2024-03-07T06:33:07;24.10;;;14.30;;
76848;SDS011;65814;51.134;16.980;2024-03-07T06:35:35;23.30;;;13.30;;
76848;SDS011;65814;51.134;16.980;2024-03-07T06:40:34;22.90;;;14.50;;
76848;SDS011;65814;51.134;16.980;2024-03-07T06:43:05;22.80;;;13.60;;
76848;SDS011;65814;51.134;16.980;2024-03-07T06:45:34;18.60;;;13.10;;
76848;SDS011;65814;51.134;16.980;2024-03-07T06:48:04;23.70;;;12.90;;
76848;SDS011;65814;51.134;16.980;2024-03-07T06:50:36;22.70;;;13.50;;
76848;SDS011;65814;51.134;16.980;2024-03-07T06:53:06;22.60;;;13.00;;
76848;SDS011;65814;51.134;16.980;2024-03-07T06:55:35;20.90;;;14.00;;
76848;SDS011;65814;51.134;16.980;2024-03-07T06:58:03;21.30;;;13.00;;
76848;SDS011;65814;51.134;16.980;2024-03-07T07:00:32;20.90;;;13.70;;
76848;SDS011;65814;51.134;16.980;2024-03-07T07:03:05;23.00;;;12.60;;
76848;SDS011;65814;51.134;16.980;2024-03-07T07:05:34;20.30;;;12.00;;
76848;SDS011;65814;51.134;16.980;2024-03-07T07:08:03;23.30;;;13.60;;
76848;SDS011;65814;51.134;16.980;2024-03-07T07:10:32;24.30;;;13.50;;
76848;SDS011;65814;51.134;16.980;2024-03-07T07:13:01;22.90;;;13.30;;
76848;SDS011;65814;51.134;16.980;2024-03-07T07:15:29;21.50;;;12.70;;
76848;SDS011;65814;51.134;16.980;2024-03-07T07:17:57;23.20;;;14.20;;
76848;SDS011;65814;51.134;16.980;2024-03-07T07:20:26;27.50;;;13.80;;
76848;SDS011;65814;51.134;16.980;2024-03-07T07:22:55;22.80;;;13.40;;
76848;SDS011;65814;51.134;16.980;2024-03-07T07:25:25;23.20;;;12.60;;
76848;SDS011;65814;51.134;16.980;2024-03-07T07:27:54;28.40;;;14.90;;
76848;SDS011;65814;51.134;16.980;2024-03-07T07:30:23;22.20;;;14.10;;
76848;SDS011;65814;51.134;16.980;2024-03-07T07:32:51;22.90;;;14.10;;
76848;SDS011;65814;51.134;16.980;2024-03-07T07:35:20;23.20;;;13.90;;
76848;SDS011;65814;51.134;16.980;2024-03-07T07:37:49;21.40;;;14.30;;
76848;SDS011;65814;51.134;16.980;2024-03-07T07:40:24;25.60;;;14.90;;
76848;SDS011;65814;51.134;16.980;2024-03-07T07:42:55;21.60;;;13.70;;
76848;SDS011;65814;51.134;16.980;2024-03-07T07:45:23;21.20;;;12.90;;
76848;SDS011;65814;51.134;16.980;2024-03-07T07:47:54;22.30;;;12.90;;
76848;SDS011;65814;51.134;16.980;2024-03-07T07:50:24;22.50;;;13.10;;
76848;SDS011;65814;51.134;16.980;2024-03-07T07:52:53;20.30;;;12.10;;
76848;SDS011;65814;51.134;16.980;2024-03-07T07:55:23;21.50;;;12.80;;
76848;SDS011;65814;51.134;16.980;2024-03-07T07:57:53;26.00;;;13.40;;
76848;SDS011;65814;51.134;16.980;2024-03-07T08:00:26;22.80;;;14.10;;
76848;SDS011;65814;51.134;16.980;2024-03-07T08:02:58;26.50;;;14.50;;
76848;SDS011;65814;51.134;16.980;2024-03-07T08:05:31;23.80;;;13.80;;
76848;SDS011;65814;51.134;16.980;2024-03-07T08:08:06;24.40;;;13.90;;
76848;SDS011;65814;51.134;16.980;2024-03-07T08:10:37;22.50;;;13.00;;
76848;SDS011;65814;51.134;16.980;2024-03-07T08:13:08;21.10;;;12.90;;
76848;SDS011;65814;51.134;16.980;2024-03-07T08:15:38;25.30;;;12.20;;
76848;SDS011;65814;51.134;16.980;2024-03-07T08:18:06;23.40;;;13.20;;
76848;SDS011;65814;51.134;16.980;2024-03-07T08:20:38;21.10;;;13.30;;
76848;SDS011;65814;51.134;16.980;2024-03-07T08:23:08;23.30;;;13.70;;
76848;SDS011;65814;51.134;16.980;2024-03-07T08:25:38;19.80;;;12.40;;
76848;SDS011;65814;51.134;16.980;2024-03-07T08:28:10;20.30;;;12.00;;
76848;SDS011;65814;51.134;16.980;2024-03-07T08:30:38;27.20;;;13.20;;
76848;SDS011;65814;51.134;16.980;2024-03-07T08:33:06;23.20;;;14.00;;
76848;SDS011;65814;51.134;16.980;2024-03-07T08:35:35;20.30;;;12.50;;
76848;SDS011;65814;51.134;16.980;2024-03-07T08:38:04;20.30;;;13.20;;
76848;SDS011;65814;51.134;16.980;2024-03-07T08:40:32;23.50;;;13.90;;
76848;SDS011;65814;51.134;16.980;2024-03-07T08:43:02;21.50;;;12.90;;
76848;SDS011;65814;51.134;16.980;2024-03-07T08:45:31;19.70;;;11.80;;
76848;SDS011;65814;51.134;16.980;2024-03-07T08:48:03;20.20;;;12.80;;
76848;SDS011;65814;51.134;16.980;2024-03-07T08:50:33;21.60;;;12.50;;
76848;SDS011;65814;51.134;16.980;2024-03-07T08:53:02;20.20;;;12.60;;
76848;SDS011;65814;51.134;16.980;2024-03-07T08:58:04;22.60;;;11.60;;
76848;SDS011;65814;51.134;16.980;2024-03-07T09:00:35;21.00;;;13.40;;
76848;SDS011;65814;51.134;16.980;2024-03-07T09:03:06;22.70;;;13.40;;
76848;SDS011;65814;51.134;16.980;2024-03-07T09:05:40;20.00;;;12.90;;
76848;SDS011;65814;51.134;16.980;2024-03-07T09:08:09;23.20;;;11.60;;
76848;SDS011;65814;51.134;16.980;2024-03-07T09:10:37;20.30;;;12.70;;
76848;SDS011;65814;51.134;16.980;2024-03-07T09:15:39;23.20;;;11.40;;
76848;SDS011;65814;51.134;16.980;2024-03-07T09:18:07;19.90;;;12.20;;
76848;SDS011;65814;51.134;16.980;2024-03-07T09:20:37;23.80;;;12.80;;
76848;SDS011;65814;51.134;16.980;2024-03-07T09:23:24;18.70;;;11.50;;
76848;SDS011;65814;51.134;16.980;2024-03-07T09:25:52;20.90;;;13.30;;
76848;SDS011;65814;51.134;16.980;2024-03-07T09:28:20;24.80;;;13.20;;
76848;SDS011;65814;51.134;16.980;2024-03-07T09:30:48;20.80;;;12.70;;
76848;SDS011;65814;51.134;16.980;2024-03-07T09:33:16;22.70;;;13.00;;
76848;SDS011;65814;51.134;16.980;2024-03-07T09:35:47;22.00;;;13.30;;
76848;SDS011;65814;51.134;16.980;2024-03-07T09:38:16;22.90;;;14.70;;
76848;SDS011;65814;51.134;16.980;2024-03-07T09:40:44;22.50;;;12.90;;
76848;SDS011;65814;51.134;16.980;2024-03-07T09:43:14;24.10;;;13.80;;
76848;SDS011;65814;51.134;16.980;2024-03-07T09:45:43;24.10;;;14.30;;
76848;SDS011;65814;51.134;16.980;2024-03-07T09:48:15;20.60;;;13.30;;
76848;SDS011;65814;51.134;16.980;2024-03-07T09:50:44;22.70;;;13.90;;
76848;SDS011;65814;51.134;16.980;2024-03-07T09:53:15;22.70;;;14.10;;
76848;SDS011;65814;51.134;16.980;2024-03-07T09:55:43;20.90;;;12.70;;
76848;SDS011;65814;51.134;16.980;2024-03-07T09:58:10;22.80;;;14.00;;
76848;SDS011;65814;51.134;16.980;2024-03-07T10:00:40;24.00;;;13.60;;
76848;SDS011;65814;51.134;16.980;2024-03-07T10:03:08;22.00;;;14.20;;
76848;SDS011;65814;51.134;16.980;2024-03-07T10:05:37;25.50;;;14.30;;
76848;SDS011;65814;51.134;16.980;2024-03-07T10:08:06;24.10;;;13.80;;
76848;SDS011;65814;51.134;16.980;2024-03-07T10:10:35;22.00;;;12.60;;
76848;SDS011;65814;51.134;16.980;2024-03-07T10:13:03;23.30;;;13.40;;
76848;SDS011;65814;51.134;16.980;2024-03-07T10:15:33;21.40;;;12.80;;
76848;SDS011;65814;51.134;16.980;2024-03-07T10:18:06;22.00;;;12.30;;
76848;SDS011;65814;51.134;16.980;2024-03-07T10:20:36;26.60;;;12.20;;
76848;SDS011;65814;51.134;16.980;2024-03-07T10:23:04;25.70;;;13.30;;
76848;SDS011;65814;51.134;16.980;2024-03-07T10:25:34;20.80;;;13.10;;
76848;SDS011;65814;51.134;16.980;2024-03-07T10:28:02;22.80;;;14.50;;
76848;SDS011;65814;51.134;16.980;2024-03-07T10:30:39;23.10;;;12.40;;
76848;SDS011;65814;51.134;16.980;2024-03-07T10:33:12;24.50;;;13.70;;
76848;SDS011;65814;51.134;16.980;2024-03-07T10:35:40;25.10;;;13.60;;
76848;SDS011;65814;51.134;16.980;2024-03-07T10:38:08;21.50;;;13.30;;
76848;SDS011;65814;51.134;16.980;2024-03-07T10:40:42;20.70;;;12.70;;
76848;SDS011;65814;51.134;16.980;2024-03-07T10:43:11;22.40;;;13.80;;
76848;SDS011;65814;51.134;16.980;2024-03-07T10:45:44;23.40;;;13.10;;
76848;SDS011;65814;51.134;16.980;2024-03-07T10:48:18;29.00;;;16.00;;
76848;SDS011;65814;51.134;16.980;2024-03-07T10:53:31;22.30;;;13.40;;
76848;SDS011;65814;51.134;16.980;2024-03-07T11:01:35;27.70;;;15.50;;
76848;SDS011;65814;51.134;16.980;2024-03-07T11:04:07;26.90;;;16.60;;
76848;SDS011;65814;51.134;16.980;2024-03-07T11:06:35;25.40;;;14.40;;
76848;SDS011;65814;51.134;16.980;2024-03-07T11:09:05;21.90;;;12.90;;
76848;SDS011;65814;51.134;16.980;2024-03-07T11:11:39;23.30;;;16.20;;
76848;SDS011;65814;51.134;16.980;2024-03-07T11:14:11;24.40;;;14.50;;
76848;SDS011;65814;51.134;16.980;2024-03-07T11:16:40;23.60;;;14.60;;
76848;SDS011;65814;51.134;16.980;2024-03-07T11:19:24;21.50;;;12.60;;
76848;SDS011;65814;51.134;16.980;2024-03-07T11:21:56;19.40;;;13.90;;
76848;SDS011;65814;51.134;16.980;2024-03-07T11:24:27;21.80;;;13.30;;
76848;SDS011;65814;51.134;16.980;2024-03-07T11:26:58;22.80;;;15.10;;
76848;SDS011;65814;51.134;16.980;2024-03-07T11:29:39;19.70;;;12.20;;
76848;SDS011;65814;51.134;16.980;2024-03-07T11:32:13;24.00;;;14.70;;
76848;SDS011;65814;51.134;16.980;2024-03-07T11:34:43;20.60;;;14.30;;
76848;SDS011;65814;51.134;16.980;2024-03-07T11:40:09;19.30;;;11.20;;
76848;SDS011;65814;51.134;16.980;2024-03-07T11:42:47;17.70;;;11.50;;
76848;SDS011;65814;51.134;16.980;2024-03-07T11:45:19;18.20;;;11.30;;
76848;SDS011;65814;51.134;16.980;2024-03-07T11:47:56;19.50;;;11.40;;
76848;SDS011;65814;51.134;16.980;2024-03-07T11:50:39;21.90;;;10.90;;
76848;SDS011;65814;51.134;16.980;2024-03-07T11:53:08;19.80;;;11.10;;
76848;SDS011;65814;51.134;16.980;2024-03-07T11:55:37;17.30;;;11.60;;
76848;SDS011;65814;51.134;16.980;2024-03-07T11:58:17;21.60;;;11.00;;
76848;SDS011;65814;51.134;16.980;2024-03-07T12:00:50;15.80;;;10.80;;
76848;SDS011;65814;51.134;16.980;2024-03-07T12:03:20;18.10;;;10.40;;
76848;SDS011;65814;51.134;16.980;2024-03-07T12:05:50;16.50;;;10.80;;
76848;SDS011;65814;51.134;16.980;2024-03-07T12:08:22;18.60;;;10.10;;
76848;SDS011;65814;51.134;16.980;2024-03-07T12:10:52;15.60;;;9.80;;
76848;SDS011;65814;51.134;16.980;2024-03-07T12:13:26;17.90;;;10.80;;
76848;SDS011;65814;51.134;16.980;2024-03-07T12:15:56;16.70;;;11.40;;
76848;SDS011;65814;51.134;16.980;2024-03-07T12:18:26;15.20;;;10.90;;
76848;SDS011;65814;51.134;16.980;2024-03-07T12:20:55;18.70;;;11.50;;
76848;SDS011;65814;51.134;16.980;2024-03-07T12:23:27;13.90;;;9.00;;
76848;SDS011;65814;51.134;16.980;2024-03-07T12:25:59;15.70;;;9.70;;
76848;SDS011;65814;51.134;16.980;2024-03-07T12:28:29;16.30;;;10.10;;
76848;SDS011;65814;51.134;16.980;2024-03-07T12:31:03;14.20;;;9.50;;
76848;SDS011;65814;51.134;16.980;2024-03-07T12:33:33;16.00;;;9.40;;
76848;SDS011;65814;51.134;16.980;2024-03-07T12:36:08;16.20;;;9.50;;
76848;SDS011;65814;51.134;16.980;2024-03-07T12:38:38;18.30;;;10.40;;
76848;SDS011;65814;51.134;16.980;2024-03-07T12:41:10;18.10;;;10.30;;
76848;SDS011;65814;51.134;16.980;2024-03-07T12:43:44;18.90;;;10.70;;
76848;SDS011;65814;51.134;16.980;2024-03-07T12:46:14;18.50;;;11.10;;
76848;SDS011;65814;51.134;16.980;2024-03-07T12:48:44;16.70;;;9.40;;
76848;SDS011;65814;51.134;16.980;2024-03-07T12:51:14;16.40;;;9.90;;
76848;SDS011;65814;51.134;16.980;2024-03-07T12:53:47;15.20;;;8.80;;
76848;SDS011;65814;51.134;16.980;2024-03-07T12:56:16;17.80;;;10.00;;
76848;SDS011;65814;51.134;16.980;2024-03-07T12:58:47;19.00;;;10.50;;
76848;SDS011;65814;51.134;16.980;2024-03-07T13:01:18;18.60;;;11.70;;
76848;SDS011;65814;51.134;16.980;2024-03-07T13:03:47;21.60;;;11.30;;
76848;SDS011;65814;51.134;16.980;2024-03-07T13:06:16;14.90;;;9.50;;
76848;SDS011;65814;51.134;16.980;2024-03-07T13:08:54;15.50;;;9.40;;
76848;SDS011;65814;51.134;16.980;2024-03-07T13:11:22;17.50;;;10.80;;
76848;SDS011;65814;51.134;16.980;2024-03-07T13:13:51;19.60;;;11.20;;
76848;SDS011;65814;51.134;16.980;2024-03-07T13:16:20;19.20;;;12.10;;
76848;SDS011;65814;51.134;16.980;2024-03-07T13:18:48;16.40;;;12.80;;
76848;SDS011;65814;51.134;16.980;2024-03-07T13:21:18;23.00;;;11.80;;
76848;SDS011;65814;51.134;16.980;2024-03-07T13:23:46;19.20;;;10.70;;
76848;SDS011;65814;51.134;16.980;2024-03-07T13:26:17;17.10;;;10.00;;
76848;SDS011;65814;51.134;16.980;2024-03-07T13:28:48;18.50;;;10.30;;
76848;SDS011;65814;51.134;16.980;2024-03-07T13:31:17;17.80;;;10.50;;
76848;SDS011;65814;51.134;16.980;2024-03-07T13:33:45;17.60;;;10.20;;
76848;SDS011;65814;51.134;16.980;2024-03-07T13:36:14;17.00;;;9.70;;
76848;SDS011;65814;51.134;16.980;2024-03-07T13:38:54;17.00;;;10.80;;
76848;SDS011;65814;51.134;16.980;2024-03-07T13:41:24;18.40;;;10.80;;
76848;SDS011;65814;51.134;16.980;2024-03-07T13:43:54;15.70;;;9.80;;
76848;SDS011;65814;51.134;16.980;2024-03-07T13:46:21;20.80;;;12.40;;
76848;SDS011;65814;51.134;16.980;2024-03-07T13:48:49;20.30;;;11.70;;
76848;SDS011;65814;51.134;16.980;2024-03-07T13:51:19;17.90;;;11.10;;
76848;SDS011;65814;51.134;16.980;2024-03-07T13:53:51;16.20;;;10.30;;
76848;SDS011;65814;51.134;16.980;2024-03-07T14:11:08;18.90;;;11.40;;
76848;SDS011;65814;51.134;16.980;2024-03-07T14:22:22;19.50;;;11.70;;
76848;SDS011;65814;51.134;16.980;2024-03-07T14:30:59;19.00;;;12.00;;
76848;SDS011;65814;51.134;16.980;2024-03-07T14:33:28;16.00;;;10.70;;
76848;SDS011;65814;51.134;16.980;2024-03-07T14:36:00;15.60;;;10.70;;
76848;SDS011;65814;51.134;16.980;2024-03-07T14:41:17;17.70;;;9.80;;
76848;SDS011;65814;51.134;16.980;2024-03-07T14:43:47;16.50;;;11.60;;
76848;SDS011;65814;51.134;16.980;2024-03-07T14:46:15;16.30;;;10.10;;
76848;SDS011;65814;51.134;16.980;2024-03-07T14:48:44;21.40;;;10.40;;
76848;SDS011;65814;51.134;16.980;2024-03-07T14:51:12;17.90;;;10.20;;
76848;SDS011;65814;51.134;16.980;2024-03-07T14:53:42;16.40;;;10.50;;
76848;SDS011;65814;51.134;16.980;2024-03-07T14:56:10;17.00;;;11.30;;
76848;SDS011;65814;51.134;16.980;2024-03-07T14:58:39;17.00;;;11.10;;
76848;SDS011;65814;51.134;16.980;2024-03-07T15:01:08;21.00;;;12.40;;
76848;SDS011;65814;51.134;16.980;2024-03-07T15:03:36;19.00;;;11.20;;
76848;SDS011;65814;51.134;16.980;2024-03-07T15:06:06;17.10;;;10.20;;
76848;SDS011;65814;51.134;16.980;2024-03-07T15:08:37;20.20;;;12.00;;
76848;SDS011;65814;51.134;16.980;2024-03-07T15:13:45;17.20;;;11.20;;
76848;SDS011;65814;51.134;16.980;2024-03-07T15:16:13;17.80;;;11.10;;
76848;SDS011;65814;51.134;16.980;2024-03-07T15:18:59;17.80;;;11.40;;